Stolt Dipper — ZCMY3 — position and weather

sailwx.info

Track history (hours):
 
Tides and Currents Weather Stations Pressure Air Temp Water Temp Dewpoint Dewpoint Depression Visibility Wind Speed Wind Dir Waves Ship Positions

Stolt Dipper

Last reported at 2014-Nov-22 20:22 UTC. Time now 2014-Nov-22 21:11 UTC.
Position N 51°56' E 003°47'.

Length 96 m; draft 4.9 m.

Type: Ship. MMSI: 319036000.

Date/timePositionNaut miles runAvg speedWind from/ knotsBaromVisibWave heightAir tempDewpointWater temp
2014-Nov-22 20:22N 51°56' E 003°47'0 0.0
2014-Nov-22 18:31N 51°56' E 003°47'3 3.3
2014-Nov-22 17:33N 51°58' E 003°43'1313.3
2014-Nov-22 16:33N 51°55' E 003°22'4011.9
2014-Nov-22 13:14N 51°36' E 002°25'710.8
2014-Nov-22 12:34N 51°31' E 002°17'1212.1
2014-Nov-22 11:33N 51°20' E 002°09'1515.1
2014-Nov-22 10:33N 51°09' E 001°52'7 6.5
2014-Nov-22 09:34N 51°03' E 001°55'1613.3
2014-Nov-22 08:23N 51°04' E 002°20'1 1.6
2014-Nov-22 07:26N 51°03' E 002°21'0 0.0
2014-Nov-22 06:23N 51°03' E 002°21'0 0.0
2014-Nov-22 04:08N 51°03' E 002°21'0 0.0
2014-Nov-22 02:32N 51°03' E 002°21'0 0.0
2014-Nov-21 21:08N 51°03' E 002°21'0 0.0
2014-Nov-21 20:32N 51°03' E 002°21'0 0.3
2014-Nov-21 19:20N 51°03' E 002°21'5 6.4
2014-Nov-21 18:33N 51°04' E 002°13'1110.6
2014-Nov-21 17:32N 51°02' E 001°57'6 6.4
2014-Nov-21 16:34N 51°02' E 001°47'4 4.1
2014-Nov-21 15:33N 51°01' E 001°40'7 7.0
2014-Nov-21 14:34N 50°56' E 001°32'1411.5
2014-Nov-21 13:20N 50°43' E 001°23'8512.5
2014-Nov-21 06:33N 49°43' W 000°12'1212.2
2014-Nov-21 05:34N 49°31' W 000°10'1111.4
2014-Nov-21 04:34N 49°29' E 000°07'2 2.4
2014-Nov-21 03:33N 49°29' E 000°10'3 2.8
2014-Nov-21 02:33N 49°28' E 000°15'0 0.0
2014-Nov-21 01:28N 49°28' E 000°15'0 0.0
2014-Nov-21 00:31N 49°28' E 000°15'0 0.0
2014-Nov-20 23:25N 49°28' E 000°15'0 0.0
2014-Nov-20 22:28N 49°28' E 000°15'0 0.0
2014-Nov-20 21:28N 49°28' E 000°15'0 0.0
2014-Nov-20 20:25N 49°28' E 000°15'0 0.0
2014-Nov-20 19:28N 49°28' E 000°15'0 0.0
2014-Nov-20 18:28N 49°28' E 000°15'0 0.0
2014-Nov-20 17:31N 49°28' E 000°15'0 0.0
2014-Nov-20 16:28N 49°28' E 000°15'0 0.0
2014-Nov-20 15:25N 49°28' E 000°15'0 0.0
2014-Nov-20 14:19N 49°28' E 000°15'0 0.0
2014-Nov-20 13:31N 49°28' E 000°15'0 0.0
2014-Nov-20 12:34N 49°28' E 000°15'3 3.0
2014-Nov-20 11:34N 49°29' E 000°10'2 2.1
2014-Nov-20 10:33N 49°29' E 000°07'4 3.7
2014-Nov-20 09:33N 49°30' E 000°02'3 2.7
2014-Nov-20 08:28N 49°29' W 000°03'0 0.0
2014-Nov-20 07:28N 49°29' W 000°03'0 0.0
2014-Nov-20 06:28N 49°29' W 000°03'0 0.0
2014-Nov-20 05:28N 49°29' W 000°03'0 0.0
2014-Nov-20 04:28N 49°29' W 000°03'0 0.1
2014-Nov-20 03:28N 49°29' W 000°03'0 0.0
2014-Nov-20 02:28N 49°29' W 000°03'0 0.0
2014-Nov-20 01:28N 49°29' W 000°03'0 0.0
2014-Nov-20 00:28N 49°29' W 000°03'0 0.0
2014-Nov-19 23:28N 49°29' W 000°03'0 0.0
2014-Nov-19 22:28N 49°29' W 000°03'0 0.0
2014-Nov-19 21:22N 49°29' W 000°03'0 0.1
2014-Nov-19 20:28N 49°29' W 000°03'0 0.0
2014-Nov-19 19:28N 49°29' W 000°03'0 0.0
2014-Nov-19 18:28N 49°29' W 000°03'0 0.0
2014-Nov-19 17:28N 49°29' W 000°03'0 0.1
2014-Nov-19 16:28N 49°29' W 000°03'0 0.0
2014-Nov-19 15:22N 49°29' W 000°03'3 3.1
2014-Nov-19 14:33N 49°30' W 000°07'1111.5
2014-Nov-19 13:33N 49°35' W 000°23'263 6.4
2014-Nov-17 20:28N 53°33' W 003°23'1011.4
2014-Nov-17 19:33N 53°30' W 003°06'1110.9
2014-Nov-17 18:34N 53°21' W 002°58'1 1.3
2014-Nov-17 17:33N 53°19' W 002°57'5 0.2
2014-Nov-16 19:28N 53°17' W 002°49'5 5.8
2014-Nov-16 18:33N 53°19' W 002°57'3 3.1
2014-Nov-16 17:33N 53°22' W 002°59'7 6.7
2014-Nov-16 16:34N 53°28' W 003°04'1010.2
2014-Nov-16 15:33N 53°31' W 003°20'8 1.9
2014-Nov-16 11:18N 53°31' W 003°34'1012.5
2014-Nov-16 10:31N 53°30' W 003°50'259 7.2
2014-Nov-14 22:27N 49°41' W 000°37'1213.4
2014-Nov-14 21:33N 49°35' W 000°21'1413.7
2014-Nov-14 20:33N 49°28' W 000°02'1414.4
2014-Nov-14 19:33N 49°26' E 000°20'13 0.7
2014-Nov-14 00:11N 49°28' E 000°40'6 9.8
2014-Nov-13 23:32N 49°29' E 000°30'1212.2
2014-Nov-13 22:33N 49°26' E 000°13'1111.0
2014-Nov-13 21:33N 49°29' W 000°04'7 7.0
2014-Nov-13 20:33N 49°34' W 000°11'6310.1
2014-Nov-13 14:19N 50°28' E 000°37'7 8.5
2014-Nov-13 13:32N 50°35' E 000°38'8 8.6
2014-Nov-13 12:34N 50°40' E 000°49'9 9.2
2014-Nov-13 11:34N 50°46' E 000°60'1411.5
2014-Nov-13 10:20N 50°55' E 001°17'1013.2
2014-Nov-13 09:33N 51°02' E 001°28'1312.8
2014-Nov-13 08:33N 51°11' E 001°43'1211.8
2014-Nov-13 07:33N 51°21' E 001°53'1111.0
2014-Nov-13 06:33N 51°30' E 002°04'1212.1
2014-Nov-13 05:33N 51°39' E 002°17'4310.4
2014-Nov-13 01:28N 52°03' E 003°14'1213.2
2014-Nov-13 00:33N 52°03' E 003°33'1312.8
2014-Nov-12 23:34N 52°02' E 003°54'1413.5
2014-Nov-12 22:34N 51°56' E 004°13'4 3.8
2014-Nov-12 21:32N 51°52' E 004°16'0 0.0
2014-Nov-12 20:32N 51°52' E 004°16'  
Track history (hours):
 
Tides and Currents Weather Stations Pressure Air Temp Water Temp Dewpoint Dewpoint Depression Visibility Wind Speed Wind Dir Waves Ship Positions

Stolt Dipper

Last reported at 2014-Nov-22 20:22 UTC. Time now 2014-Nov-22 21:11 UTC.
Position N 51°56' E 003°47'.

Length 96 m; draft 4.9 m.

Type: Ship. MMSI: 319036000.

Date/timePositionNaut miles runAvg speedWind from/ knotsBaromVisibWave heightAir tempDewpointWater temp
2014-Nov-22 20:22N 51°56' E 003°47'0 0.0
2014-Nov-22 18:31N 51°56' E 003°47'3 3.3
2014-Nov-22 17:33N 51°58' E 003°43'1313.3
2014-Nov-22 16:33N 51°55' E 003°22'4011.9
2014-Nov-22 13:14N 51°36' E 002°25'710.8
2014-Nov-22 12:34N 51°31' E 002°17'1212.1
2014-Nov-22 11:33N 51°20' E 002°09'1515.1
2014-Nov-22 10:33N 51°09' E 001°52'7 6.5
2014-Nov-22 09:34N 51°03' E 001°55'1613.3
2014-Nov-22 08:23N 51°04' E 002°20'1 1.6
2014-Nov-22 07:26N 51°03' E 002°21'0 0.0
2014-Nov-22 06:23N 51°03' E 002°21'0 0.0
2014-Nov-22 04:08N 51°03' E 002°21'0 0.0
2014-Nov-22 02:32N 51°03' E 002°21'0 0.0
2014-Nov-21 21:08N 51°03' E 002°21'0 0.0
2014-Nov-21 20:32N 51°03' E 002°21'0 0.3
2014-Nov-21 19:20N 51°03' E 002°21'5 6.4
2014-Nov-21 18:33N 51°04' E 002°13'1110.6
2014-Nov-21 17:32N 51°02' E 001°57'6 6.4
2014-Nov-21 16:34N 51°02' E 001°47'4 4.1
2014-Nov-21 15:33N 51°01' E 001°40'7 7.0
2014-Nov-21 14:34N 50°56' E 001°32'1411.5
2014-Nov-21 13:20N 50°43' E 001°23'8512.5
2014-Nov-21 06:33N 49°43' W 000°12'1212.2
2014-Nov-21 05:34N 49°31' W 000°10'1111.4
2014-Nov-21 04:34N 49°29' E 000°07'2 2.4
2014-Nov-21 03:33N 49°29' E 000°10'3 2.8
2014-Nov-21 02:33N 49°28' E 000°15'0 0.0
2014-Nov-21 01:28N 49°28' E 000°15'0 0.0
2014-Nov-21 00:31N 49°28' E 000°15'0 0.0
2014-Nov-20 23:25N 49°28' E 000°15'0 0.0
2014-Nov-20 22:28N 49°28' E 000°15'0 0.0
2014-Nov-20 21:28N 49°28' E 000°15'0 0.0
2014-Nov-20 20:25N 49°28' E 000°15'0 0.0
2014-Nov-20 19:28N 49°28' E 000°15'0 0.0
2014-Nov-20 18:28N 49°28' E 000°15'0 0.0
2014-Nov-20 17:31N 49°28' E 000°15'0 0.0
2014-Nov-20 16:28N 49°28' E 000°15'0 0.0
2014-Nov-20 15:25N 49°28' E 000°15'0 0.0
2014-Nov-20 14:19N 49°28' E 000°15'0 0.0
2014-Nov-20 13:31N 49°28' E 000°15'0 0.0
2014-Nov-20 12:34N 49°28' E 000°15'3 3.0
2014-Nov-20 11:34N 49°29' E 000°10'2 2.1
2014-Nov-20 10:33N 49°29' E 000°07'4 3.7
2014-Nov-20 09:33N 49°30' E 000°02'3 2.7
2014-Nov-20 08:28N 49°29' W 000°03'0 0.0
2014-Nov-20 07:28N 49°29' W 000°03'0 0.0
2014-Nov-20 06:28N 49°29' W 000°03'0 0.0
2014-Nov-20 05:28N 49°29' W 000°03'0 0.0
2014-Nov-20 04:28N 49°29' W 000°03'0 0.1
2014-Nov-20 03:28N 49°29' W 000°03'0 0.0
2014-Nov-20 02:28N 49°29' W 000°03'0 0.0
2014-Nov-20 01:28N 49°29' W 000°03'0 0.0
2014-Nov-20 00:28N 49°29' W 000°03'0 0.0
2014-Nov-19 23:28N 49°29' W 000°03'0 0.0
2014-Nov-19 22:28N 49°29' W 000°03'0 0.0
2014-Nov-19 21:22N 49°29' W 000°03'0 0.1
2014-Nov-19 20:28N 49°29' W 000°03'0 0.0
2014-Nov-19 19:28N 49°29' W 000°03'0 0.0
2014-Nov-19 18:28N 49°29' W 000°03'0 0.0
2014-Nov-19 17:28N 49°29' W 000°03'0 0.1
2014-Nov-19 16:28N 49°29' W 000°03'0 0.0
2014-Nov-19 15:22N 49°29' W 000°03'3 3.1
2014-Nov-19 14:33N 49°30' W 000°07'1111.5
2014-Nov-19 13:33N 49°35' W 000°23'263 6.4
2014-Nov-17 20:28N 53°33' W 003°23'1011.4
2014-Nov-17 19:33N 53°30' W 003°06'1110.9
2014-Nov-17 18:34N 53°21' W 002°58'1 1.3
2014-Nov-17 17:33N 53°19' W 002°57'5 0.2
2014-Nov-16 19:28N 53°17' W 002°49'5 5.8
2014-Nov-16 18:33N 53°19' W 002°57'3 3.1
2014-Nov-16 17:33N 53°22' W 002°59'7 6.7
2014-Nov-16 16:34N 53°28' W 003°04'1010.2
2014-Nov-16 15:33N 53°31' W 003°20'8 1.9
2014-Nov-16 11:18N 53°31' W 003°34'1012.5
2014-Nov-16 10:31N 53°30' W 003°50'259 7.2
2014-Nov-14 22:27N 49°41' W 000°37'1213.4
2014-Nov-14 21:33N 49°35' W 000°21'1413.7
2014-Nov-14 20:33N 49°28' W 000°02'1414.4
2014-Nov-14 19:33N 49°26' E 000°20'13 0.7
2014-Nov-14 00:11N 49°28' E 000°40'6 9.8
2014-Nov-13 23:32N 49°29' E 000°30'1212.2
2014-Nov-13 22:33N 49°26' E 000°13'1111.0
2014-Nov-13 21:33N 49°29' W 000°04'7 7.0
2014-Nov-13 20:33N 49°34' W 000°11'6310.1
2014-Nov-13 14:19N 50°28' E 000°37'7 8.5
2014-Nov-13 13:32N 50°35' E 000°38'8 8.6
2014-Nov-13 12:34N 50°40' E 000°49'9 9.2
2014-Nov-13 11:34N 50°46' E 000°60'1411.5
2014-Nov-13 10:20N 50°55' E 001°17'1013.2
2014-Nov-13 09:33N 51°02' E 001°28'1312.8
2014-Nov-13 08:33N 51°11' E 001°43'1211.8
2014-Nov-13 07:33N 51°21' E 001°53'1111.0
2014-Nov-13 06:33N 51°30' E 002°04'1212.1
2014-Nov-13 05:33N 51°39' E 002°17'4310.4
2014-Nov-13 01:28N 52°03' E 003°14'1213.2
2014-Nov-13 00:33N 52°03' E 003°33'1312.8
2014-Nov-12 23:34N 52°02' E 003°54'1413.5
2014-Nov-12 22:34N 51°56' E 004°13'4 3.8
2014-Nov-12 21:32N 51°52' E 004°16'0 0.0
2014-Nov-12 20:32N 51°52' E 004°16'  

Dump ship's entire track history